Annette Island, AK

4:36 PM AKST on November 24, 2014 (GMT -0900)
Annette Island | Change Station
CLOSE
Current Station
Airport
Location: Annette Island,
Elevation: 112 ft
Nearby Weather Stations

Elev 112 ft 55.04 °N, 131.57 °W | Updated 43 minutes ago

Scattered Clouds
Scattered Clouds
40 °F
Feels Like 40 °F
N
0
Wind Variable Wind from North

Today
High -- | Low -- °F
--% Chance of Precip.
Yesterday
High -- | Low -- °F
Precip. -- in
7:35 AM 3:29 PM
Waxing Crescent, 8% visible
Pressure 29.97 in
Visibility 10.0 miles
Clouds Few 2500 ft
Scattered Clouds 5000 ft
Scattered Clouds 20000 ft
Dew Point 37 °F
Humidity 89%
Rainfall 0.50 in
Snow Depth Not available.
UV 0 out of 12
Pollen Not available.
Air Quality Not available.
Flu Activity Not available.
METAR PANT 250053Z 00000KT 10SM FEW025 SCT050 SCT200 04/03 A2997 RMK AO2 SLP149 T00440028

More Conditions Fewer Conditions

Pressure 29.97 in
Visibility 10.0 miles
Clouds Few 2500 ft
Scattered Clouds 5000 ft
Scattered Clouds 20000 ft
Dew Point 37 °F
Humidity 89%
Rainfall 0.50 in
Snow Depth Not available.
UV 0 out of 12
Pollen Not available.
Air Quality Not available.
Flu Activity Not available.
METAR PANT 250053Z 00000KT 10SM FEW025 SCT050 SCT200 04/03 A2997 RMK AO2 SLP149 T00440028

More Conditions Fewer Conditions

10-Day Weather Forecast

Almanac

Astronomy

Nov. 24, 2014 Rise Set
Actual Time
Civil Twilight
Nautical Twilight
Astronomical Twilight
Moon
Length of Visible Light
Length of Day
Tomorrow will be .
, % of the Moon is Illuminated

Today's Extremes

State Highs State Lows

Community

WunderPhotos

Upload Photos

1,773,457 photos uploaded!

WunderBlogs® & News

Nearby

Air Quality

  Air Quality AQ Index Pollutant
Not available.

Snow Depth

Station Depth Elevation

Earthquake Activity

City Distance Mag. Time & Date
Minimum magnitude displayed is 2.5.

Coastal Water Temperatures

Place Temperature

Nearby Weather Stations